Time;durP1;ratioP1;P1;durP2;ratioP2;P2;SDS_P1;SDS_P2;PMS_P1;PMS_P2;Temp;Humidity;BMP_temperature;BMP_pressure;BME280_temperature;BME280_humidity;BME280_pressure;Samples;Min_cycle;Max_cycle;Signal;HPM_P1;HPM_P2
2021/11/20 00:02:08;;;;;;;47.90;27.00;;;10.30;1.00;;;;;;4975884;28;20208;-63
2021/11/20 00:04:35;;;;;;;45.90;26.87;;;10.30;1.00;;;;;;4975386;28;20224;-63
2021/11/20 00:07:03;;;;;;;48.20;26.57;;;10.30;1.00;;;;;;4975655;28;20208;-64
2021/11/20 00:09:31;;;;;;;50.30;26.63;;;10.30;1.00;;;;;;4975567;28;20214;-63
2021/11/20 00:12:01;;;;;;;42.30;25.73;;;10.30;1.00;;;;;;4975611;28;20208;-63
2021/11/20 00:14:30;;;;;;;45.93;26.80;;;10.30;1.00;;;;;;4975396;28;20236;-63
2021/11/20 00:17:00;;;;;;;43.70;25.97;;;10.30;1.00;;;;;;4974264;28;20679;-63
2021/11/20 00:19:27;;;;;;;43.77;26.60;;;10.30;99.90;;;;;;4975521;28;20219;-63
2021/11/20 00:22:01;;;;;;;42.53;23.90;;;10.40;99.90;;;;;;4975398;28;20216;-63
2021/11/20 00:24:32;;;;;;;45.83;25.33;;;10.40;99.90;;;;;;4975181;28;20224;-63
2021/11/20 00:27:01;;;;;;;44.60;25.70;;;10.30;99.90;;;;;;4975545;28;20240;-63
2021/11/20 00:29:38;;;;;;;42.33;25.77;;;10.30;99.90;;;;;;4975156;28;20745;-63
2021/11/20 00:32:10;;;;;;;44.87;25.83;;;10.40;99.90;;;;;;4975364;28;20319;-63
2021/11/20 00:34:40;;;;;;;45.20;25.07;;;10.40;99.90;;;;;;4974698;28;20625;-64
2021/11/20 00:37:07;;;;;;;47.83;26.60;;;10.30;99.90;;;;;;4974920;28;20246;-64
2021/11/20 00:39:36;;;;;;;45.07;26.20;;;10.30;99.90;;;;;;4974994;28;20208;-64
2021/11/20 00:42:05;;;;;;;46.27;26.43;;;10.30;99.90;;;;;;4975052;28;20245;-64
2021/11/20 00:44:32;;;;;;;46.53;26.43;;;10.20;99.90;;;;;;4974766;28;20228;-64
2021/11/20 00:46:59;;;;;;;44.87;24.37;;;10.30;99.90;;;;;;4974778;28;20282;-63
2021/11/20 00:49:26;;;;;;;44.67;25.30;;;10.30;99.90;;;;;;4974927;28;20259;-63
2021/11/20 00:51:55;;;;;;;42.57;24.43;;;10.30;99.90;;;;;;4975078;28;20579;-63
2021/11/20 00:54:22;;;;;;;42.80;25.63;;;10.30;99.90;;;;;;4974676;28;20228;-64
2021/11/20 00:56:50;;;;;;;41.53;24.57;;;10.30;99.90;;;;;;4974552;28;20209;-63
2021/11/20 00:59:18;;;;;;;47.57;25.90;;;10.20;99.90;;;;;;4974787;28;20208;-63
2021/11/20 01:01:48;;;;;;;47.97;25.63;;;10.20;99.90;;;;;;4974704;28;20212;-63
2021/11/20 01:04:15;;;;;;;43.20;24.30;;;10.20;99.90;;;;;;4974328;28;20255;-63
2021/11/20 01:06:42;;;;;;;43.83;24.97;;;10.20;99.90;;;;;;4974390;28;20212;-63
2021/11/20 01:09:13;;;;;;;44.30;26.63;;;10.20;99.90;;;;;;4974779;28;20212;-63
2021/11/20 01:11:44;;;;;;;47.70;26.43;;;10.10;99.90;;;;;;4974557;28;20215;-63
2021/11/20 01:14:14;;;;;;;48.07;26.17;;;10.10;99.90;;;;;;4974250;28;20240;-63
2021/11/20 01:16:43;;;;;;;45.17;25.97;;;10.00;99.90;;;;;;4973692;28;20263;-63
2021/11/20 01:19:10;;;;;;;44.60;24.83;;;10.10;99.90;;;;;;4974592;28;20239;-63
2021/11/20 01:21:38;;;;;;;45.90;25.47;;;10.10;99.90;;;;;;4974072;28;20606;-63
2021/11/20 01:24:07;;;;;;;42.07;26.13;;;10.00;99.90;;;;;;4974261;28;20225;-63
2021/11/20 01:26:34;;;;;;;44.23;25.37;;;10.00;99.90;;;;;;4973813;28;20208;-63
2021/11/20 01:29:02;;;;;;;46.40;26.30;;;10.10;99.90;;;;;;4974281;28;20212;-63
2021/11/20 01:31:31;;;;;;;45.50;25.87;;;10.10;99.90;;;;;;4973989;28;20419;-64
2021/11/20 01:33:59;;;;;;;48.77;27.10;;;10.10;99.90;;;;;;4973958;28;20240;-63
2021/11/20 01:36:28;;;;;;;49.87;27.70;;;10.00;99.90;;;;;;4973723;28;20262;-63
2021/11/20 01:38:58;;;;;;;45.10;25.97;;;10.00;99.90;;;;;;4973555;28;20255;-63
2021/11/20 01:41:27;;;;;;;44.80;25.87;;;10.10;99.90;;;;;;4974021;28;20213;-63
2021/11/20 01:43:57;;;;;;;44.37;26.47;;;10.00;99.90;;;;;;4973613;28;20220;-63
2021/11/20 01:46:29;;;;;;;47.93;25.70;;;10.00;99.90;;;;;;4973663;28;20208;-63
2021/11/20 01:49:13;;;;;;;42.70;25.30;;;10.10;99.90;;;;;;4973991;28;20244;-63
2021/11/20 01:51:43;;;;;;;47.10;26.30;;;10.10;99.90;;;;;;4973817;28;20263;-63
2021/11/20 01:54:19;;;;;;;42.07;24.40;;;10.10;99.90;;;;;;4973421;28;20290;-64
2021/11/20 01:56:50;;;;;;;44.33;25.30;;;10.10;99.90;;;;;;4973517;28;20586;-63
2021/11/20 01:59:23;;;;;;;51.10;26.87;;;10.10;99.90;;;;;;4973805;28;20239;-64
2021/11/20 02:01:54;;;;;;;45.13;25.30;;;10.10;99.90;;;;;;4973962;28;20213;-63
2021/11/20 02:04:29;;;;;;;43.50;25.47;;;10.10;99.90;;;;;;4973412;28;20780;-63
2021/11/20 02:07:14;;;;;;;42.63;24.73;;;10.10;99.90;;;;;;4973171;28;20306;-63
2021/11/20 02:09:45;;;;;;;44.57;26.03;;;10.10;99.90;;;;;;4973691;28;20270;-63
2021/11/20 02:12:14;;;;;;;42.30;24.97;;;10.10;99.90;;;;;;4973549;28;20208;-63
2021/11/20 02:14:42;;;;;;;44.03;25.90;;;10.10;99.90;;;;;;4972856;28;20291;-63
2021/11/20 02:17:18;;;;;;;43.17;25.87;;;10.00;99.90;;;;;;4973136;28;20215;-63
2021/11/20 02:19:49;;;;;;;44.67;25.03;;;10.00;99.90;;;;;;4973601;28;20267;-62
2021/11/20 02:22:21;;;;;;;41.43;25.53;;;10.00;99.90;;;;;;4973326;28;20209;-63
2021/11/20 02:24:47;;;;;;;40.87;24.17;;;10.00;99.90;;;;;;4972944;28;20780;-63
2021/11/20 02:27:15;;;;;;;40.67;24.73;;;10.00;99.90;;;;;;4973327;28;20205;-63
2021/11/20 02:29:46;;;;;;;43.97;25.90;;;10.00;99.90;;;;;;4973021;28;20217;-63
2021/11/20 02:32:16;;;;;;;43.80;25.37;;;10.00;99.90;;;;;;4973384;28;20300;-63
2021/11/20 02:34:44;;;;;;;44.73;25.43;;;10.00;99.90;;;;;;4972733;28;20236;-64
2021/11/20 02:37:11;;;;;;;40.00;24.73;;;9.90;99.90;;;;;;4973186;28;20218;-63
2021/11/20 02:39:39;;;;;;;44.00;25.57;;;10.00;99.90;;;;;;4972655;28;20295;-63
2021/11/20 02:42:13;;;;;;;42.43;24.93;;;10.00;99.90;;;;;;4972997;28;20208;-63
2021/11/20 02:44:40;;;;;;;42.80;26.13;;;10.00;99.90;;;;;;4972830;28;20224;-63
2021/11/20 02:47:18;;;;;;;43.77;25.10;;;10.10;99.90;;;;;;4972828;28;20737;-63
2021/11/20 02:49:46;;;;;;;43.37;25.90;;;10.00;99.90;;;;;;4973096;28;20733;-63
2021/11/20 02:52:14;;;;;;;41.17;23.97;;;10.00;99.90;;;;;;4972836;28;20212;-63
2021/11/20 02:54:42;;;;;;;43.93;25.10;;;10.10;99.90;;;;;;4972382;28;20233;-63
2021/11/20 02:57:14;;;;;;;38.23;24.27;;;10.10;99.90;;;;;;4973069;28;20239;-64
2021/11/20 02:59:41;;;;;;;40.93;24.37;;;10.10;99.90;;;;;;4973065;28;20208;-63
2021/11/20 03:02:10;;;;;;;39.73;23.70;;;10.00;99.90;;;;;;4972894;28;20216;-63
2021/11/20 03:04:37;;;;;;;39.27;24.57;;;10.00;99.90;;;;;;4972395;28;20885;-63
2021/11/20 03:07:05;;;;;;;39.20;25.43;;;10.00;99.90;;;;;;4972722;28;20216;-63
2021/11/20 03:09:34;;;;;;;40.07;24.27;;;10.00;99.90;;;;;;4973012;28;20267;-64
2021/11/20 03:12:03;;;;;;;42.50;24.73;;;9.90;99.90;;;;;;4973066;28;20227;-63
2021/11/20 03:14:30;;;;;;;41.90;25.07;;;9.90;99.90;;;;;;4972676;28;20232;-63
2021/11/20 03:16:59;;;;;;;44.90;27.00;;;9.90;99.90;;;;;;4972628;28;20215;-64
2021/11/20 03:19:29;;;;;;;42.03;23.80;;;9.90;99.90;;;;;;4972932;28;20681;-63
2021/11/20 03:21:58;;;;;;;40.30;24.03;;;9.90;99.90;;;;;;4972992;28;20282;-63
2021/11/20 03:24:28;;;;;;;43.40;25.53;;;9.90;99.90;;;;;;4972853;28;20256;-63
2021/11/20 03:26:57;;;;;;;42.20;26.00;;;9.90;99.90;;;;;;4972526;28;20239;-63
2021/11/20 03:29:25;;;;;;;41.73;25.70;;;9.80;99.90;;;;;;4972756;28;20208;-63
2021/11/20 03:31:53;;;;;;;45.63;25.77;;;9.80;99.90;;;;;;4972475;28;20255;-63
2021/11/20 03:34:20;;;;;;;36.60;23.57;;;9.90;99.90;;;;;;4972428;28;20327;-64
2021/11/20 03:36:48;;;;;;;44.77;23.47;;;9.90;99.90;;;;;;4972272;28;20753;-63
2021/11/20 03:39:15;;;;;;;39.77;24.37;;;9.80;99.90;;;;;;4972707;28;20212;-63
2021/11/20 03:41:43;;;;;;;44.80;24.50;;;9.80;99.90;;;;;;4972550;28;20218;-63
2021/11/20 03:44:10;;;;;;;38.53;23.93;;;9.80;99.90;;;;;;4972526;28;20232;-63
2021/11/20 03:46:38;;;;;;;36.77;22.20;;;9.80;99.90;;;;;;4972022;28;20625;-64
2021/11/20 03:49:05;;;;;;;38.83;22.33;;;9.80;99.90;;;;;;4972561;28;20213;-63
2021/11/20 03:51:34;;;;;;;40.50;24.10;;;9.70;99.90;;;;;;4973450;28;20212;-63
2021/11/20 03:54:02;;;;;;;36.73;23.30;;;9.80;99.90;;;;;;4975540;28;20232;-63
2021/11/20 03:56:30;;;;;;;37.00;22.77;;;9.80;99.90;;;;;;4975576;28;20217;-63
2021/11/20 03:58:58;;;;;;;38.00;22.60;;;9.80;99.90;;;;;;4975733;28;20266;-63
2021/11/20 04:01:27;;;;;;;36.77;21.80;;;9.80;99.90;;;;;;4975563;28;20212;-64
2021/11/20 04:03:53;;;;;;;35.63;22.27;;;9.80;99.90;;;;;;4975822;28;20228;-64
2021/11/20 04:06:21;;;;;;;42.73;23.10;;;9.80;99.90;;;;;;4975387;28;20208;-64
2021/11/20 04:08:49;;;;;;;37.73;22.03;;;9.80;99.90;;;;;;4975898;28;20216;-63
2021/11/20 04:11:18;;;;;;;31.87;20.70;;;9.90;99.90;;;;;;4975530;28;20215;-63
2021/11/20 04:13:45;;;;;;;32.90;21.33;;;9.90;99.90;;;;;;4975385;28;20291;-63
2021/11/20 04:16:14;;;;;;;36.23;21.33;;;9.90;99.90;;;;;;4975191;28;20675;-63
2021/11/20 04:18:42;;;;;;;33.33;20.63;;;9.80;99.90;;;;;;4976217;28;20208;-64
2021/11/20 04:21:09;;;;;;;35.60;20.73;;;9.80;99.90;;;;;;4976116;28;20236;-64
2021/11/20 04:23:37;;;;;;;32.27;20.10;;;9.80;99.90;;;;;;4976194;28;20208;-65
2021/11/20 04:26:05;;;;;;;29.47;19.17;;;9.90;99.90;;;;;;4975850;28;20259;-63
2021/11/20 04:28:33;;;;;;;29.67;19.07;;;9.90;99.90;;;;;;4975919;28;20219;-63
2021/11/20 04:31:00;;;;;;;29.30;19.30;;;10.00;98.40;;;;;;4975739;28;20208;-63
2021/11/20 04:33:28;;;;;;;32.47;20.47;;;10.00;92.10;;;;;;4975224;28;20208;-63
2021/11/20 04:35:55;;;;;;;34.13;20.67;;;9.90;83.20;;;;;;4974541;28;20649;-64
2021/11/20 04:38:22;;;;;;;31.67;20.17;;;10.00;72.40;;;;;;4975062;28;20208;-64
2021/11/20 04:40:48;;;;;;;36.67;22.33;;;9.90;61.00;;;;;;4974961;28;20216;-64
2021/11/20 04:43:15;;;;;;;32.10;21.73;;;9.90;53.30;;;;;;4975171;28;20566;-64
2021/11/20 04:45:43;;;;;;;36.70;21.60;;;9.90;46.30;;;;;;4974651;28;20229;-64
2021/11/20 04:48:10;;;;;;;34.83;21.57;;;9.90;42.90;;;;;;4974957;28;20208;-64
2021/11/20 04:50:38;;;;;;;35.93;21.50;;;9.90;38.00;;;;;;4974891;28;20215;-65
2021/11/20 04:53:06;;;;;;;36.00;22.23;;;9.90;37.90;;;;;;4974815;28;20571;-65
2021/11/20 04:55:32;;;;;;;37.50;21.90;;;9.90;51.20;;;;;;4974086;28;20584;-65
2021/11/20 04:57:59;;;;;;;35.97;22.87;;;9.90;34.30;;;;;;4975065;28;20259;-65
2021/11/20 05:00:30;;;;;;;33.93;21.53;;;9.90;28.50;;;;;;4974707;28;20208;-65
2021/11/20 05:02:57;;;;;;;33.97;21.60;;;9.80;27.50;;;;;;4974241;28;20216;-65
2021/11/20 05:05:24;;;;;;;34.63;22.17;;;9.80;28.40;;;;;;4974257;28;20220;-65
2021/11/20 05:07:53;;;;;;;38.13;23.00;;;9.80;28.90;;;;;;4974330;28;20216;-65
2021/11/20 05:10:19;;;;;;;37.70;22.97;;;9.70;29.10;;;;;;4974744;28;20299;-65
2021/11/20 05:12:46;;;;;;;34.50;21.50;;;9.70;28.10;;;;;;4974652;28;20256;-65
2021/11/20 05:15:14;;;;;;;37.83;22.53;;;9.70;29.20;;;;;;4973779;28;20239;-65
2021/11/20 05:17:41;;;;;;;41.93;24.63;;;9.80;29.40;;;;;;4974403;28;20213;-64
2021/11/20 05:20:09;;;;;;;36.40;23.23;;;9.80;17.60;;;;;;4974324;28;20569;-65
2021/11/20 05:22:36;;;;;;;40.90;23.43;;;9.80;11.10;;;;;;4974120;28;20208;-64
2021/11/20 05:25:06;;;;;;;40.60;24.47;;;9.80;4.60;;;;;;4974030;28;20228;-64
2021/11/20 05:27:33;;;;;;;43.77;23.97;;;9.80;4.00;;;;;;4974163;28;20630;-64
2021/11/20 05:30:04;;;;;;;41.53;23.63;;;9.90;4.50;;;;;;4974193;28;20259;-64
2021/11/20 05:32:31;;;;;;;41.20;23.97;;;9.90;4.50;;;;;;4974045;28;20678;-64
2021/11/20 05:34:58;;;;;;;39.67;23.63;;;9.80;4.90;;;;;;4973431;28;20228;-64
2021/11/20 05:37:25;;;;;;;42.10;24.63;;;9.80;4.50;;;;;;4974238;28;20208;-64
2021/11/20 05:39:51;;;;;;;40.40;24.53;;;9.90;4.40;;;;;;4974206;28;20270;-64
2021/11/20 05:42:20;;;;;;;42.43;24.77;;;9.90;4.50;;;;;;4974027;28;20220;-64
2021/11/20 05:44:46;;;;;;;45.23;24.23;;;9.80;4.10;;;;;;4973540;28;20785;-64
2021/11/20 05:47:13;;;;;;;41.10;25.20;;;9.90;4.10;;;;;;4973670;28;20212;-64
2021/11/20 05:49:42;;;;;;;42.00;23.93;;;9.90;4.00;;;;;;4973619;28;20676;-64
2021/11/20 05:52:10;;;;;;;39.37;24.37;;;9.90;3.00;;;;;;4973583;28;20267;-64
2021/11/20 05:54:37;;;;;;;39.03;22.93;;;9.90;1.00;;;;;;4973370;28;20231;-64
2021/11/20 05:57:04;;;;;;;38.83;23.47;;;9.90;1.00;;;;;;4973771;28;20307;-64
2021/11/20 05:59:32;;;;;;;38.37;23.10;;;9.90;1.00;;;;;;4973665;28;20208;-64
2021/11/20 06:01:59;;;;;;;40.40;24.30;;;9.90;1.00;;;;;;4973575;28;20306;-64
2021/11/20 06:04:29;;;;;;;40.43;24.10;;;9.90;1.00;;;;;;4973148;28;20236;-64
2021/11/20 06:06:56;;;;;;;40.13;23.60;;;9.90;1.00;;;;;;4973783;28;20303;-64
2021/11/20 06:09:23;;;;;;;41.27;24.50;;;9.90;1.00;;;;;;4973532;28;20208;-64
2021/11/20 06:11:49;;;;;;;42.57;23.10;;;9.80;1.00;;;;;;4973491;28;20239;-64
2021/11/20 06:14:17;;;;;;;39.97;24.20;;;9.70;1.00;;;;;;4972451;28;20232;-64
2021/11/20 06:16:46;;;;;;;45.90;24.53;;;9.80;1.00;;;;;;4972819;28;20619;-64
2021/11/20 06:19:13;;;;;;;42.87;23.63;;;9.80;1.00;;;;;;4973374;28;20674;-64
2021/11/20 06:21:40;;;;;;;43.63;23.60;;;9.80;1.00;;;;;;4973444;28;20214;-64
2021/11/20 06:24:07;;;;;;;42.23;24.17;;;9.80;1.00;;;;;;4973349;28;20228;-64
2021/11/20 06:26:34;;;;;;;42.93;23.80;;;9.80;1.00;;;;;;4972978;28;20205;-64
2021/11/20 06:29:01;;;;;;;40.63;22.80;;;9.80;1.00;;;;;;4973348;28;20633;-64
2021/11/20 06:31:28;;;;;;;42.63;22.83;;;9.80;1.00;;;;;;4973031;28;20689;-64
2021/11/20 06:33:57;;;;;;;43.03;23.60;;;9.80;1.00;;;;;;4973300;28;20228;-64
2021/11/20 06:36:24;;;;;;;41.37;23.67;;;9.90;1.00;;;;;;4972946;28;20243;-64
2021/11/20 06:38:51;;;;;;;42.97;23.03;;;9.80;1.00;;;;;;4972887;28;20208;-66
2021/11/20 06:41:18;;;;;;;39.83;22.07;;;9.90;1.00;;;;;;4973033;28;20240;-64
2021/11/20 06:43:44;;;;;;;44.63;23.87;;;9.90;1.00;;;;;;4972772;28;20315;-64
2021/11/20 06:46:14;;;;;;;41.63;25.07;;;9.80;1.00;;;;;;4972967;28;20212;-64
2021/11/20 06:48:41;;;;;;;40.37;23.07;;;9.90;1.00;;;;;;4973110;28;20266;-64
2021/11/20 06:51:10;;;;;;;42.67;24.20;;;9.90;1.00;;;;;;4973240;28;20560;-64
2021/11/20 06:53:38;;;;;;;45.07;23.13;;;9.90;1.00;;;;;;4973599;28;20204;-64
2021/11/20 06:56:06;;;;;;;42.03;23.47;;;9.80;1.00;;;;;;4973383;28;20277;-64
2021/11/20 07:01:17;;;;;;;39.50;23.00;;;9.90;1.00;;;;;;4973046;28;20207;-64
2021/11/20 07:03:48;;;;;;;43.43;23.67;;;9.80;1.00;;;;;;4973089;28;20204;-64
2021/11/20 07:06:18;;;;;;;40.07;22.43;;;9.90;1.00;;;;;;4972592;28;20602;-64
2021/11/20 07:08:47;;;;;;;44.17;23.23;;;9.90;1.00;;;;;;4972773;28;20210;-64
2021/11/20 07:11:15;;;;;;;42.47;22.50;;;9.90;1.00;;;;;;4973198;28;20216;-64
2021/11/20 07:13:42;;;;;;;42.47;23.27;;;9.80;1.00;;;;;;4972907;28;20212;-64
2021/11/20 07:16:11;;;;;;;41.03;22.77;;;9.80;1.00;;;;;;4972194;28;20232;-64
2021/11/20 07:18:37;;;;;;;41.00;22.33;;;9.80;1.00;;;;;;4972855;28;20227;-64
2021/11/20 07:21:05;;;;;;;38.53;21.70;;;9.60;1.00;;;;;;4972784;28;20213;-64
2021/11/20 07:23:34;;;;;;;46.00;24.57;;;9.60;1.00;;;;;;4972402;28;20267;-64
2021/11/20 07:26:01;;;;;;;46.67;23.47;;;9.60;1.00;;;;;;4974261;28;20204;-64
2021/11/20 07:28:29;;;;;;;46.83;23.63;;;9.60;1.00;;;;;;4976439;28;20210;-64
2021/11/20 07:30:56;;;;;;;40.63;21.93;;;9.60;1.00;;;;;;4976427;28;20299;-64
2021/11/20 07:33:23;;;;;;;43.97;23.07;;;9.60;1.00;;;;;;4976208;28;20208;-64
2021/11/20 07:35:52;;;;;;;43.17;23.47;;;9.60;1.00;;;;;;4975838;28;20302;-64
2021/11/20 07:38:23;;;;;;;53.47;24.27;;;9.50;1.00;;;;;;4976463;28;20204;-64
2021/11/20 07:40:51;;;;;;;44.27;23.17;;;9.50;1.00;;;;;;4976311;28;20641;-64
2021/11/20 07:43:18;;;;;;;41.10;23.00;;;9.50;1.00;;;;;;4976344;28;20208;-63
2021/11/20 07:45:45;;;;;;;43.53;22.93;;;9.50;1.00;;;;;;4975657;28;20233;-64
2021/11/20 07:48:14;;;;;;;43.43;22.70;;;9.60;1.00;;;;;;4976138;28;20209;-64
2021/11/20 07:50:44;;;;;;;40.77;22.03;;;9.60;1.00;;;;;;4975858;28;20271;-64
2021/11/20 07:53:10;;;;;;;41.13;22.57;;;9.60;1.00;;;;;;4975848;28;20259;-64
2021/11/20 07:55:38;;;;;;;40.67;23.10;;;9.70;1.00;;;;;;4975842;28;20231;-64
2021/11/20 07:58:07;;;;;;;39.23;22.23;;;9.70;1.00;;;;;;4975773;28;20212;-64
2021/11/20 08:00:35;;;;;;;37.17;21.53;;;9.70;1.00;;;;;;4975848;28;20678;-64
2021/11/20 08:03:02;;;;;;;42.00;22.70;;;9.70;1.00;;;;;;4975542;28;20208;-63
2021/11/20 08:05:28;;;;;;;41.43;23.27;;;9.70;1.00;;;;;;4975564;28;20647;-64
2021/11/20 08:07:56;;;;;;;39.67;21.67;;;9.80;1.00;;;;;;4975795;28;20243;-64
2021/11/20 08:10:26;;;;;;;40.37;23.10;;;9.80;1.00;;;;;;4975814;28;20624;-64
2021/11/20 08:12:52;;;;;;;41.77;22.53;;;9.90;1.00;;;;;;4975582;28;20283;-64
2021/11/20 08:15:21;;;;;;;41.53;21.83;;;9.90;1.00;;;;;;4975011;28;20371;-64
2021/11/20 08:17:49;;;;;;;42.40;22.27;;;9.90;1.00;;;;;;4975692;28;20212;-64
2021/11/20 08:20:17;;;;;;;42.73;22.83;;;9.80;1.00;;;;;;4975607;28;20259;-64
2021/11/20 08:22:44;;;;;;;40.13;21.63;;;9.80;1.00;;;;;;4975322;28;20671;-64
2021/11/20 08:25:14;;;;;;;37.43;21.33;;;9.80;1.00;;;;;;4974884;28;20722;-64
2021/11/20 08:27:41;;;;;;;40.03;22.87;;;9.80;1.00;;;;;;4975300;28;20216;-64
2021/11/20 08:30:12;;;;;;;43.20;22.37;;;9.80;1.00;;;;;;4974995;28;20204;-64
2021/11/20 08:32:40;;;;;;;43.43;21.37;;;9.80;1.00;;;;;;4975598;28;20212;-64
2021/11/20 08:35:08;;;;;;;41.47;22.70;;;9.90;1.00;;;;;;4974868;28;20232;-66
2021/11/20 08:37:34;;;;;;;37.77;21.67;;;9.90;1.00;;;;;;4974358;28;20259;-64
2021/11/20 08:40:03;;;;;;;39.17;21.83;;;10.00;1.00;;;;;;4974999;28;20208;-64
2021/11/20 08:42:31;;;;;;;39.50;22.53;;;9.90;1.00;;;;;;4974816;28;20307;-65
2021/11/20 08:44:58;;;;;;;38.23;21.20;;;9.90;1.00;;;;;;4974839;28;20260;-65
2021/11/20 08:47:25;;;;;;;35.33;21.03;;;9.90;1.00;;;;;;4977596;28;20208;-65
2021/11/20 08:49:53;;;;;;;36.23;21.17;;;10.00;1.00;;;;;;4993991;28;20268;-64
2021/11/20 08:52:19;;;;;;;34.70;20.40;;;10.10;1.00;;;;;;4994499;28;20286;-63
2021/11/20 08:54:46;;;;;;;38.67;21.70;;;10.10;1.00;;;;;;4993695;28;20274;-65
2021/11/20 08:57:13;;;;;;;35.30;20.47;;;10.10;1.00;;;;;;4993058;28;20251;-65
2021/11/20 08:59:41;;;;;;;41.23;22.70;;;10.10;1.00;;;;;;4994164;28;20243;-64
2021/11/20 09:02:13;;;;;;;35.93;20.60;;;10.10;1.00;;;;;;4993978;28;20302;-65
2021/11/20 09:04:55;;;;;;;35.53;21.27;;;10.20;1.00;;;;;;4993818;28;20507;-64
2021/11/20 09:07:26;;;;;;;37.10;20.90;;;10.20;1.00;;;;;;4990974;28;20203;-64
2021/11/20 09:09:58;;;;;;;35.80;20.03;;;10.30;1.00;;;;;;4987476;28;20219;-65
2021/11/20 09:12:29;;;;;;;36.43;20.80;;;10.30;1.00;;;;;;4993393;28;20220;-64
2021/11/20 09:14:59;;;;;;;34.37;20.37;;;10.30;1.00;;;;;;4992187;28;20611;-65
2021/11/20 09:17:26;;;;;;;33.23;20.87;;;10.30;1.00;;;;;;4992788;28;20228;-65
2021/11/20 09:19:54;;;;;;;37.90;21.20;;;10.30;1.00;;;;;;4992406;28;20208;-64
2021/11/20 09:22:21;;;;;;;37.37;20.87;;;10.30;1.00;;;;;;4992330;28;20215;-64
2021/11/20 09:24:49;;;;;;;34.93;20.13;;;10.30;1.00;;;;;;4992543;28;20235;-64
2021/11/20 09:27:17;;;;;;;37.83;21.07;;;10.30;1.00;;;;;;4992543;28;20211;-65
2021/11/20 09:29:44;;;;;;;35.97;21.27;;;10.30;1.00;;;;;;4992141;28;20208;-64
2021/11/20 09:32:13;;;;;;;35.37;19.33;;;10.30;1.00;;;;;;4992322;28;20212;-65
2021/11/20 09:34:40;;;;;;;40.37;22.90;;;10.30;1.00;;;;;;4991626;28;20236;-63
2021/11/20 09:37:08;;;;;;;38.53;20.33;;;10.30;1.00;;;;;;4992329;28;20234;-64
2021/11/20 09:39:37;;;;;;;36.47;20.67;;;10.40;1.00;;;;;;4991720;28;20234;-64
2021/11/20 09:42:28;;;;;;;33.80;19.30;;;10.40;1.00;;;;;;4991640;28;20210;-65
2021/11/20 09:44:58;;;;;;;33.87;20.03;;;10.40;1.00;;;;;;4991287;28;20236;-65
2021/11/20 09:47:28;;;;;;;32.43;19.37;;;10.40;1.00;;;;;;4992302;28;20214;-65
2021/11/20 09:50:01;;;;;;;34.40;20.80;;;10.40;1.00;;;;;;4991307;28;20634;-65
2021/11/20 09:52:30;;;;;;;34.40;19.90;;;10.50;1.00;;;;;;4991617;28;20215;-65
2021/11/20 09:54:57;;;;;;;36.50;20.37;;;10.50;1.00;;;;;;4991624;28;20235;-64
2021/11/20 09:57:27;;;;;;;37.43;20.87;;;10.50;1.00;;;;;;4992188;28;20227;-65
2021/11/20 10:00:10;;;;;;;34.37;20.53;;;10.50;1.00;;;;;;4991026;28;20214;-65
2021/11/20 10:02:48;;;;;;;33.60;19.87;;;10.50;1.00;;;;;;4972588;28;20246;-62
2021/11/20 10:05:20;;;;;;;31.90;20.10;;;10.50;1.00;;;;;;4984973;28;20227;-64
2021/11/20 10:07:51;;;;;;;36.83;20.27;;;10.50;1.00;;;;;;4989011;28;20373;-62
2021/11/20 10:10:22;;;;;;;35.43;20.30;;;10.40;1.00;;;;;;4971002;28;20218;-61
2021/11/20 10:12:52;;;;;;;32.07;20.83;;;10.50;1.00;;;;;;4971924;28;20208;-63
2021/11/20 10:15:24;;;;;;;34.33;20.80;;;10.40;1.00;;;;;;4971911;28;20310;-60
2021/11/20 10:17:54;;;;;;;33.67;20.77;;;10.40;1.00;;;;;;4972064;28;20592;-61
2021/11/20 10:20:31;;;;;;;31.60;19.53;;;10.50;1.00;;;;;;4972186;28;20216;-60
2021/11/20 10:23:03;;;;;;;32.33;20.27;;;10.50;1.00;;;;;;4971204;28;20924;-60
2021/11/20 10:25:55;;;;;;;34.67;21.07;;;10.50;1.00;;;;;;4971573;28;20880;-59
2021/11/20 10:28:34;;;;;;;36.47;20.43;;;10.50;1.00;;;;;;4971137;28;20725;-61
2021/11/20 10:31:05;;;;;;;34.53;21.07;;;10.50;1.00;;;;;;4972290;28;20215;-62
2021/11/20 10:33:35;;;;;;;33.97;20.83;;;10.60;1.00;;;;;;4972110;28;20246;-60
2021/11/20 10:36:08;;;;;;;34.53;20.57;;;10.50;1.00;;;;;;4971611;28;20706;-64
2021/11/20 10:38:42;;;;;;;34.97;21.70;;;10.60;1.00;;;;;;4971761;28;20272;-62
2021/11/20 10:41:18;;;;;;;38.73;19.87;;;10.50;1.00;;;;;;4972130;28;20213;-59
2021/11/20 10:43:49;;;;;;;29.70;18.47;;;10.50;1.00;;;;;;4983746;28;20619;-62
2021/11/20 10:46:29;;;;;;;31.80;20.20;;;10.50;1.00;;;;;;4991102;28;20752;-62
2021/11/20 10:49:41;;;;;;;34.00;19.77;;;10.50;1.00;;;;;;4990926;28;20207;-62
2021/11/20 10:52:11;;;;;;;33.60;19.37;;;10.60;1.00;;;;;;4986083;28;20265;-62
2021/11/20 10:55:05;;;;;;;29.67;18.13;;;10.60;1.00;;;;;;4990667;28;20231;-62
2021/11/20 10:58:08;;;;;;;26.13;17.10;;;10.60;1.00;;;;;;4989405;28;20259;-62
2021/11/20 11:01:01;;;;;;;33.10;19.40;;;10.50;1.00;;;;;;4981560;28;20215;-62
2021/11/20 11:03:35;;;;;;;26.97;17.47;;;10.60;1.00;;;;;;4994267;28;20208;-62
2021/11/20 11:06:41;;;;;;;28.30;17.13;;;10.60;1.00;;;;;;4995130;28;20207;-62
2021/11/20 11:09:37;;;;;;;24.87;16.27;;;10.60;1.00;;;;;;4980314;28;20234;-62
2021/11/20 11:12:12;;;;;;;28.97;17.20;;;10.50;1.00;;;;;;4974160;28;20238;-62
2021/11/20 11:14:50;;;;;;;25.30;16.77;;;10.50;1.00;;;;;;4974777;28;20227;-62
2021/11/20 11:17:29;;;;;;;28.97;17.80;;;10.40;1.00;;;;;;4975784;28;20240;-62
2021/11/20 11:20:01;;;;;;;28.53;17.30;;;10.50;1.00;;;;;;4974447;28;20211;-62
2021/11/20 11:22:31;;;;;;;26.23;17.43;;;10.50;1.00;;;;;;4975514;28;20215;-62
2021/11/20 11:25:13;;;;;;;26.57;16.23;;;10.50;1.00;;;;;;4975717;28;20251;-62
2021/11/20 11:28:04;;;;;;;27.97;16.20;;;10.50;1.00;;;;;;4976068;28;20212;-62
2021/11/20 11:30:47;;;;;;;28.60;16.63;;;10.50;1.00;;;;;;4976724;28;20212;-62
2021/11/20 11:33:14;;;;;;;24.90;16.67;;;10.60;1.00;;;;;;4976046;28;20215;-62
2021/11/20 11:35:44;;;;;;;22.97;14.80;;;10.50;1.00;;;;;;4975410;28;20239;-62
2021/11/20 11:38:24;;;;;;;24.70;15.13;;;10.50;1.00;;;;;;4975518;28;20254;-62
2021/11/20 11:40:57;;;;;;;24.40;14.83;;;10.60;1.00;;;;;;4976134;28;20222;-68
2021/11/20 11:43:28;;;;;;;19.93;13.73;;;10.60;1.00;;;;;;4975845;28;20212;-64
2021/11/20 11:46:21;;;;;;;21.83;14.33;;;10.60;1.00;;;;;;4975444;28;20229;-63
2021/11/20 11:49:06;;;;;;;21.27;14.47;;;10.50;1.00;;;;;;4975661;28;20212;-64
2021/11/20 11:51:48;;;;;;;23.10;15.40;;;10.60;1.00;;;;;;4970961;28;20218;-65
2021/11/20 11:54:35;;;;;;;23.67;14.83;;;10.50;1.00;;;;;;4979916;28;20252;-65
2021/11/20 11:57:34;;;;;;;22.87;13.43;;;10.50;1.00;;;;;;4995185;28;20230;-65
2021/11/20 12:00:16;;;;;;;21.60;13.37;;;10.50;1.00;;;;;;4995259;28;20218;-63
2021/11/20 12:02:49;;;;;;;18.87;13.60;;;10.50;1.00;;;;;;4994775;28;20211;-66
2021/11/20 12:05:38;;;;;;;19.67;13.60;;;10.50;1.00;;;;;;4994646;28;20579;-67
2021/11/20 12:08:21;;;;;;;20.40;13.53;;;10.40;1.00;;;;;;4994463;28;20203;-66
2021/11/20 12:10:53;;;;;;;20.93;14.27;;;10.40;1.00;;;;;;4994875;28;20215;-67
2021/11/20 12:13:33;;;;;;;19.33;13.70;;;10.40;1.00;;;;;;4993704;28;20685;-63
2021/11/20 12:16:22;;;;;;;22.50;13.93;;;10.40;1.00;;;;;;4994314;28;20242;-63
2021/11/20 12:19:02;;;;;;;21.50;13.10;;;10.40;1.00;;;;;;4992703;28;20299;-62
2021/11/20 12:21:38;;;;;;;20.90;13.80;;;10.50;1.00;;;;;;4994398;28;20226;-63
2021/11/20 12:24:19;;;;;;;17.57;12.77;;;10.50;1.00;;;;;;4994448;28;20238;-63
2021/11/20 12:27:00;;;;;;;17.87;12.20;;;10.50;1.00;;;;;;4994395;28;20202;-63
2021/11/20 12:29:50;;;;;;;17.63;12.33;;;10.40;1.00;;;;;;4994255;28;20219;-63
2021/11/20 12:32:38;;;;;;;16.07;11.27;;;10.40;1.00;;;;;;4994595;28;20208;-63
2021/11/20 12:35:17;;;;;;;15.83;11.50;;;10.30;1.00;;;;;;4994074;28;20307;-65
2021/11/20 12:38:07;;;;;;;15.47;11.67;;;10.30;1.00;;;;;;4994295;28;20227;-60
2021/11/20 12:41:00;;;;;;;15.13;10.10;;;10.10;1.00;;;;;;4994743;28;20208;-59
2021/11/20 12:43:52;;;;;;;14.40;11.23;;;10.20;1.00;;;;;;4994285;28;20211;-60
2021/11/20 12:46:30;;;;;;;14.93;10.40;;;10.20;1.00;;;;;;4993809;28;20203;-62
2021/11/20 12:49:38;;;;;;;16.63;11.77;;;10.10;1.00;;;;;;4994114;28;20211;-62
2021/11/20 12:52:21;;;;;;;16.33;11.20;;;10.20;1.00;;;;;;4994293;28;20215;-61
2021/11/20 12:55:00;;;;;;;12.43;10.00;;;10.10;1.00;;;;;;4993657;28;20231;-63
2021/11/20 12:57:31;;;;;;;12.47;9.57;;;10.10;1.00;;;;;;4994126;28;20737;-62
2021/11/20 13:00:13;;;;;;;13.43;9.77;;;10.10;1.00;;;;;;4993958;28;20686;-62
2021/11/20 13:02:43;;;;;;;13.23;9.10;;;10.10;1.00;;;;;;4993902;28;20208;-62